sensor_id;sensor_type;location;lat;lon;timestamp;pressure;altitude;pressure_sealevel;temperature;humidity
15634;BME280;14654;48.898;8.308;2023-05-09T00:02:05;100515.72;;;16.10;100.00
15634;BME280;14654;48.898;8.308;2023-05-09T00:04:32;100509.69;;;16.07;100.00
15634;BME280;14654;48.898;8.308;2023-05-09T00:06:58;100506.25;;;16.06;100.00
15634;BME280;14654;48.898;8.308;2023-05-09T00:09:24;100508.88;;;16.05;100.00
15634;BME280;14654;48.898;8.308;2023-05-09T00:11:49;100504.63;;;16.02;100.00
15634;BME280;14654;48.898;8.308;2023-05-09T00:14:14;100507.28;;;16.00;100.00
15634;BME280;14654;48.898;8.308;2023-05-09T00:16:42;100504.69;;;15.99;100.00
15634;BME280;14654;48.898;8.308;2023-05-09T00:19:08;100512.53;;;15.99;100.00
15634;BME280;14654;48.898;8.308;2023-05-09T00:21:34;100507.34;;;15.97;100.00
15634;BME280;14654;48.898;8.308;2023-05-09T00:23:59;100497.81;;;15.96;100.00
15634;BME280;14654;48.898;8.308;2023-05-09T00:26:25;100498.72;;;15.95;100.00
15634;BME280;14654;48.898;8.308;2023-05-09T00:28:50;100500.47;;;15.95;100.00
15634;BME280;14654;48.898;8.308;2023-05-09T00:31:16;100503.09;;;15.95;100.00
15634;BME280;14654;48.898;8.308;2023-05-09T00:33:41;100500.47;;;15.95;100.00
15634;BME280;14654;48.898;8.308;2023-05-09T00:36:06;100493.50;;;15.95;100.00
15634;BME280;14654;48.898;8.308;2023-05-09T00:38:32;100497.81;;;15.96;100.00
15634;BME280;14654;48.898;8.308;2023-05-09T00:40:57;100496.91;;;15.97;100.00
15634;BME280;14654;48.898;8.308;2023-05-09T00:43:22;100495.13;;;15.99;100.00
15634;BME280;14654;48.898;8.308;2023-05-09T00:45:48;100491.63;;;15.99;100.00
15634;BME280;14654;48.898;8.308;2023-05-09T00:48:14;100475.97;;;15.99;100.00
15634;BME280;14654;48.898;8.308;2023-05-09T00:50:40;100479.47;;;15.98;100.00
15634;BME280;14654;48.898;8.308;2023-05-09T00:53:06;100476.94;;;15.96;100.00
15634;BME280;14654;48.898;8.308;2023-05-09T00:55:32;100479.47;;;15.98;100.00
15634;BME280;14654;48.898;8.308;2023-05-09T00:57:58;100470.81;;;15.97;100.00
15634;BME280;14654;48.898;8.308;2023-05-09T01:00:23;100470.84;;;15.96;100.00
15634;BME280;14654;48.898;8.308;2023-05-09T01:02:52;100474.41;;;15.93;100.00
15634;BME280;14654;48.898;8.308;2023-05-09T01:05:18;100468.41;;;15.90;100.00
15634;BME280;14654;48.898;8.308;2023-05-09T01:07:56;100471.88;;;15.90;100.00
15634;BME280;14654;48.898;8.308;2023-05-09T01:10:43;100474.47;;;15.92;100.00
15634;BME280;14654;48.898;8.308;2023-05-09T01:16:17;100479.47;;;15.99;100.00
15634;BME280;14654;48.898;8.308;2023-05-09T01:21:27;100460.22;;;16.02;100.00
15634;BME280;14654;48.898;8.308;2023-05-09T01:31:44;100466.19;;;16.07;100.00
15634;BME280;14654;48.898;8.308;2023-05-09T01:34:10;100472.25;;;16.08;100.00
15634;BME280;14654;48.898;8.308;2023-05-09T01:36:39;100460.88;;;16.10;100.00
15634;BME280;14654;48.898;8.308;2023-05-09T01:39:06;100458.28;;;16.10;100.00
15634;BME280;14654;48.898;8.308;2023-05-09T01:41:36;100448.75;;;16.08;100.00
15634;BME280;14654;48.898;8.308;2023-05-09T01:44:04;100436.66;;;16.05;100.00
15634;BME280;14654;48.898;8.308;2023-05-09T01:46:31;100437.63;;;16.03;100.00
15634;BME280;14654;48.898;8.308;2023-05-09T01:48:56;100437.63;;;16.01;100.00
15634;BME280;14654;48.898;8.308;2023-05-09T01:51:23;100442.03;;;15.99;100.00
15634;BME280;14654;48.898;8.308;2023-05-09T01:53:50;100446.44;;;15.97;100.00
15634;BME280;14654;48.898;8.308;2023-05-09T01:56:17;100445.59;;;15.96;100.00
15634;BME280;14654;48.898;8.308;2023-05-09T01:58:43;100441.22;;;15.97;100.00
15634;BME280;14654;48.898;8.308;2023-05-09T02:01:12;100439.50;;;15.97;100.00
15634;BME280;14654;48.898;8.308;2023-05-09T02:03:39;100440.31;;;15.99;100.00
15634;BME280;14654;48.898;8.308;2023-05-09T02:06:06;100443.75;;;16.00;100.00
15634;BME280;14654;48.898;8.308;2023-05-09T02:08:32;100435.97;;;15.98;100.00
15634;BME280;14654;48.898;8.308;2023-05-09T02:10:58;100426.47;;;15.96;100.00
15634;BME280;14654;48.898;8.308;2023-05-09T02:13:23;100430.91;;;15.94;100.00
15634;BME280;14654;48.898;8.308;2023-05-09T02:15:49;100443.97;;;15.92;100.00
15634;BME280;14654;48.898;8.308;2023-05-09T02:18:15;100437.03;;;15.91;100.00
15634;BME280;14654;48.898;8.308;2023-05-09T02:20:41;100430.97;;;15.91;100.00
15634;BME280;14654;48.898;8.308;2023-05-09T02:23:06;100422.41;;;15.87;100.00
15634;BME280;14654;48.898;8.308;2023-05-09T02:25:33;100421.59;;;15.85;100.00
15634;BME280;14654;48.898;8.308;2023-05-09T02:27:58;100422.59;;;15.78;100.00
15634;BME280;14654;48.898;8.308;2023-05-09T02:30:25;100427.13;;;15.73;100.00
15634;BME280;14654;48.898;8.308;2023-05-09T02:32:58;100428.13;;;15.67;100.00
15634;BME280;14654;48.898;8.308;2023-05-09T02:35:25;100434.28;;;15.64;100.00
15634;BME280;14654;48.898;8.308;2023-05-09T02:37:51;100427.41;;;15.62;100.00
15634;BME280;14654;48.898;8.308;2023-05-09T02:40:18;100430.09;;;15.59;100.00
15634;BME280;14654;48.898;8.308;2023-05-09T02:42:44;100424.94;;;15.57;100.00
15634;BME280;14654;48.898;8.308;2023-05-09T02:45:10;100428.47;;;15.54;100.00
15634;BME280;14654;48.898;8.308;2023-05-09T02:47:36;100423.25;;;15.54;100.00
15634;BME280;14654;48.898;8.308;2023-05-09T02:50:02;100427.56;;;15.55;100.00
15634;BME280;14654;48.898;8.308;2023-05-09T02:52:28;100425.84;;;15.56;100.00
15634;BME280;14654;48.898;8.308;2023-05-09T02:54:53;100427.56;;;15.57;100.00
15634;BME280;14654;48.898;8.308;2023-05-09T02:57:18;100423.19;;;15.58;100.00
15634;BME280;14654;48.898;8.308;2023-05-09T02:59:44;100426.59;;;15.60;100.00
15634;BME280;14654;48.898;8.308;2023-05-09T03:02:09;100418.78;;;15.60;100.00
15634;BME280;14654;48.898;8.308;2023-05-09T03:04:35;100421.38;;;15.60;100.00
15634;BME280;14654;48.898;8.308;2023-05-09T03:07:00;100422.28;;;15.59;100.00
15634;BME280;14654;48.898;8.308;2023-05-09T03:09:26;100424.00;;;15.60;100.00
15634;BME280;14654;48.898;8.308;2023-05-09T03:11:51;100416.19;;;15.58;100.00
15634;BME280;14654;48.898;8.308;2023-05-09T03:14:16;100411.84;;;15.59;100.00
15634;BME280;14654;48.898;8.308;2023-05-09T03:16:42;100416.19;;;15.58;100.00
15634;BME280;14654;48.898;8.308;2023-05-09T03:19:07;100405.75;;;15.58;100.00
15634;BME280;14654;48.898;8.308;2023-05-09T03:21:33;100416.16;;;15.60;100.00
15634;BME280;14654;48.898;8.308;2023-05-09T03:23:58;100404.00;;;15.59;100.00
15634;BME280;14654;48.898;8.308;2023-05-09T03:26:23;100404.00;;;15.59;100.00
15634;BME280;14654;48.898;8.308;2023-05-09T03:28:50;100397.91;;;15.60;100.00
15634;BME280;14654;48.898;8.308;2023-05-09T03:31:15;100396.13;;;15.60;100.00
15634;BME280;14654;48.898;8.308;2023-05-09T03:33:41;100395.25;;;15.61;100.00
15634;BME280;14654;48.898;8.308;2023-05-09T03:36:06;100394.34;;;15.62;100.00
15634;BME280;14654;48.898;8.308;2023-05-09T03:38:32;100389.09;;;15.64;100.00
15634;BME280;14654;48.898;8.308;2023-05-09T03:40:58;100395.09;;;15.66;100.00
15634;BME280;14654;48.898;8.308;2023-05-09T03:43:23;100393.31;;;15.68;100.00
15634;BME280;14654;48.898;8.308;2023-05-09T03:45:48;100393.28;;;15.69;100.00
15634;BME280;14654;48.898;8.308;2023-05-09T03:48:13;100385.47;;;15.69;100.00
15634;BME280;14654;48.898;8.308;2023-05-09T03:50:39;100388.00;;;15.71;100.00
15634;BME280;14654;48.898;8.308;2023-05-09T03:53:05;100389.78;;;15.70;100.00
15634;BME280;14654;48.898;8.308;2023-05-09T03:55:30;100388.00;;;15.71;100.00
15634;BME280;14654;48.898;8.308;2023-05-09T03:57:56;100382.84;;;15.69;100.00
15634;BME280;14654;48.898;8.308;2023-05-09T04:00:21;100387.16;;;15.70;100.00
15634;BME280;14654;48.898;8.308;2023-05-09T04:02:47;100381.91;;;15.72;100.00
15634;BME280;14654;48.898;8.308;2023-05-09T04:05:14;100390.59;;;15.73;100.00
15634;BME280;14654;48.898;8.308;2023-05-09T04:07:39;100390.63;;;15.71;100.00
15634;BME280;14654;48.898;8.308;2023-05-09T04:10:05;100387.06;;;15.74;100.00
15634;BME280;14654;48.898;8.308;2023-05-09T04:12:31;100388.78;;;15.75;100.00
15634;BME280;14654;48.898;8.308;2023-05-09T04:14:57;100382.66;;;15.76;100.00
15634;BME280;14654;48.898;8.308;2023-05-09T04:17:22;100378.31;;;15.76;100.00
15634;BME280;14654;48.898;8.308;2023-05-09T04:19:48;100385.25;;;15.77;100.00
15634;BME280;14654;48.898;8.308;2023-05-09T04:22:13;100377.34;;;15.79;100.00
15634;BME280;14654;48.898;8.308;2023-05-09T04:24:38;100385.16;;;15.80;100.00
15634;BME280;14654;48.898;8.308;2023-05-09T04:27:04;100390.31;;;15.82;100.00
15634;BME280;14654;48.898;8.308;2023-05-09T04:29:29;100388.53;;;15.82;100.00
15634;BME280;14654;48.898;8.308;2023-05-09T04:31:55;100388.53;;;15.82;100.00
15634;BME280;14654;48.898;8.308;2023-05-09T04:34:20;100391.16;;;15.82;100.00
15634;BME280;14654;48.898;8.308;2023-05-09T04:36:46;100394.59;;;15.84;100.00
15634;BME280;14654;48.898;8.308;2023-05-09T04:39:11;100387.66;;;15.85;100.00
15634;BME280;14654;48.898;8.308;2023-05-09T04:41:37;100391.97;;;15.86;100.00
15634;BME280;14654;48.898;8.308;2023-05-09T04:44:02;100378.03;;;15.87;100.00
15634;BME280;14654;48.898;8.308;2023-05-09T04:46:27;100388.50;;;15.85;100.00
15634;BME280;14654;48.898;8.308;2023-05-09T04:48:53;100384.16;;;15.86;100.00
15634;BME280;14654;48.898;8.308;2023-05-09T04:51:18;100382.38;;;15.87;100.00
15634;BME280;14654;48.898;8.308;2023-05-09T04:53:43;100382.38;;;15.87;100.00
15634;BME280;14654;48.898;8.308;2023-05-09T04:56:09;100379.78;;;15.87;100.00
15634;BME280;14654;48.898;8.308;2023-05-09T04:58:34;100385.03;;;15.85;100.00
15634;BME280;14654;48.898;8.308;2023-05-09T05:01:03;100373.75;;;15.83;100.00
15634;BME280;14654;48.898;8.308;2023-05-09T05:03:29;100377.28;;;15.82;100.00
15634;BME280;14654;48.898;8.308;2023-05-09T05:05:54;100362.44;;;15.84;100.00
15634;BME280;14654;48.898;8.308;2023-05-09T05:08:20;100367.53;;;15.89;100.00
15634;BME280;14654;48.898;8.308;2023-05-09T05:10:45;100364.75;;;15.95;100.00
15634;BME280;14654;48.898;8.308;2023-05-09T05:13:11;100355.88;;;16.00;100.00
15634;BME280;14654;48.898;8.308;2023-05-09T05:15:36;100356.47;;;16.09;100.00
15634;BME280;14654;48.898;8.308;2023-05-09T05:18:02;100357.00;;;16.20;100.00
15634;BME280;14654;48.898;8.308;2023-05-09T05:20:27;100352.31;;;16.32;100.00
15634;BME280;14654;48.898;8.308;2023-05-09T05:22:53;100347.53;;;16.44;100.00
15634;BME280;14654;48.898;8.308;2023-05-09T05:25:19;100347.09;;;16.58;100.00
15634;BME280;14654;48.898;8.308;2023-05-09T05:27:45;100361.38;;;16.73;100.00
15634;BME280;14654;48.898;8.308;2023-05-09T05:30:10;100359.97;;;16.90;100.00
15634;BME280;14654;48.898;8.308;2023-05-09T05:32:36;100359.31;;;17.10;100.00
15634;BME280;14654;48.898;8.308;2023-05-09T05:35:02;100361.25;;;17.30;100.00
15634;BME280;14654;48.898;8.308;2023-05-09T05:37:29;100354.56;;;17.47;100.00
15634;BME280;14654;48.898;8.308;2023-05-09T05:39:54;100349.66;;;17.61;100.00
15634;BME280;14654;48.898;8.308;2023-05-09T05:42:19;100341.34;;;17.74;100.00
15634;BME280;14654;48.898;8.308;2023-05-09T05:44:45;100336.53;;;17.85;100.00
15634;BME280;14654;48.898;8.308;2023-05-09T05:47:10;100347.28;;;18.01;100.00
15634;BME280;14654;48.898;8.308;2023-05-09T05:49:35;100337.00;;;18.19;100.00
15634;BME280;14654;48.898;8.308;2023-05-09T05:52:01;100344.97;;;18.38;100.00
15634;BME280;14654;48.898;8.308;2023-05-09T05:54:26;100336.75;;;18.47;100.00
15634;BME280;14654;48.898;8.308;2023-05-09T05:56:52;100341.66;;;18.55;100.00
15634;BME280;14654;48.898;8.308;2023-05-09T05:59:17;100341.59;;;18.56;100.00
15634;BME280;14654;48.898;8.308;2023-05-09T06:01:42;100342.34;;;18.60;100.00
15634;BME280;14654;48.898;8.308;2023-05-09T06:04:07;100345.81;;;18.61;100.00
15634;BME280;14654;48.898;8.308;2023-05-09T06:06:33;100343.25;;;18.59;100.00
15634;BME280;14654;48.898;8.308;2023-05-09T06:08:58;100341.47;;;18.59;100.00
15634;BME280;14654;48.898;8.308;2023-05-09T06:11:24;100337.88;;;18.62;100.00
15634;BME280;14654;48.898;8.308;2023-05-09T06:13:49;100338.84;;;18.59;100.00
15634;BME280;14654;48.898;8.308;2023-05-09T06:16:14;100342.50;;;18.55;100.00
15634;BME280;14654;48.898;8.308;2023-05-09T06:18:40;100337.53;;;18.49;100.00
15634;BME280;14654;48.898;8.308;2023-05-09T06:21:06;100332.63;;;18.41;100.00
15634;BME280;14654;48.898;8.308;2023-05-09T06:23:31;100330.94;;;18.39;100.00
15634;BME280;14654;48.898;8.308;2023-05-09T06:25:57;100325.59;;;18.42;100.00
15634;BME280;14654;48.898;8.308;2023-05-09T06:28:22;100318.28;;;18.50;100.00
15634;BME280;14654;48.898;8.308;2023-05-09T06:30:48;100313.44;;;18.62;100.00
15634;BME280;14654;48.898;8.308;2023-05-09T06:33:13;100316.00;;;18.84;100.00
15634;BME280;14654;48.898;8.308;2023-05-09T06:35:39;100316.88;;;19.24;100.00
15634;BME280;14654;48.898;8.308;2023-05-09T06:38:04;100313.75;;;19.56;100.00
15634;BME280;14654;48.898;8.308;2023-05-09T06:40:30;100316.34;;;19.75;100.00
15634;BME280;14654;48.898;8.308;2023-05-09T06:42:55;100309.63;;;19.88;100.00
15634;BME280;14654;48.898;8.308;2023-05-09T06:45:21;100304.69;;;20.00;100.00
15634;BME280;14654;48.898;8.308;2023-05-09T06:47:46;100306.13;;;20.07;100.00
15634;BME280;14654;48.898;8.308;2023-05-09T06:50:11;100300.88;;;20.07;100.00
15634;BME280;14654;48.898;8.308;2023-05-09T06:52:37;100300.19;;;20.03;100.00
15634;BME280;14654;48.898;8.308;2023-05-09T06:55:02;100295.91;;;20.01;100.00
15634;BME280;14654;48.898;8.308;2023-05-09T06:57:28;100288.16;;;19.98;100.00
15634;BME280;14654;48.898;8.308;2023-05-09T06:59:54;100293.13;;;20.04;100.00
15634;BME280;14654;48.898;8.308;2023-05-09T07:02:19;100284.78;;;20.13;100.00
15634;BME280;14654;48.898;8.308;2023-05-09T07:04:44;100292.63;;;20.15;100.00
15634;BME280;14654;48.898;8.308;2023-05-09T07:07:10;100290.38;;;20.07;100.00
15634;BME280;14654;48.898;8.308;2023-05-09T07:09:35;100279.38;;;19.99;100.00
15634;BME280;14654;48.898;8.308;2023-05-09T07:12:00;100283.44;;;19.87;100.00
15634;BME280;14654;48.898;8.308;2023-05-09T07:14:26;100279.59;;;19.75;100.00
15634;BME280;14654;48.898;8.308;2023-05-09T07:16:51;100274.00;;;19.63;100.00
15634;BME280;14654;48.898;8.308;2023-05-09T07:19:17;100271.78;;;19.54;100.00
15634;BME280;14654;48.898;8.308;2023-05-09T07:21:42;100263.34;;;19.47;100.00
15634;BME280;14654;48.898;8.308;2023-05-09T07:24:07;100261.59;;;19.48;100.00
15634;BME280;14654;48.898;8.308;2023-05-09T07:26:34;100255.13;;;19.55;100.00
15634;BME280;14654;48.898;8.308;2023-05-09T07:28:59;100255.28;;;19.71;100.00
15634;BME280;14654;48.898;8.308;2023-05-09T07:31:25;100248.72;;;19.99;100.00
15634;BME280;14654;48.898;8.308;2023-05-09T07:33:50;100245.63;;;20.26;100.00
15634;BME280;14654;48.898;8.308;2023-05-09T07:36:15;100238.13;;;20.36;100.00
15634;BME280;14654;48.898;8.308;2023-05-09T07:38:41;100231.97;;;20.37;100.00
15634;BME280;14654;48.898;8.308;2023-05-09T07:41:07;100223.38;;;20.33;100.00
15634;BME280;14654;48.898;8.308;2023-05-09T07:43:32;100217.50;;;20.28;100.00
15634;BME280;14654;48.898;8.308;2023-05-09T07:45:57;100216.47;;;20.31;100.00
15634;BME280;14654;48.898;8.308;2023-05-09T07:48:23;100203.09;;;20.35;100.00
15634;BME280;14654;48.898;8.308;2023-05-09T07:50:48;100205.28;;;20.45;100.00
15634;BME280;14654;48.898;8.308;2023-05-09T07:53:13;100206.59;;;20.53;100.00
15634;BME280;14654;48.898;8.308;2023-05-09T07:55:39;100209.91;;;20.57;100.00
15634;BME280;14654;48.898;8.308;2023-05-09T07:58:04;100210.00;;;20.55;100.00
15634;BME280;14654;48.898;8.308;2023-05-09T08:00:30;100213.59;;;20.53;100.00
15634;BME280;14654;48.898;8.308;2023-05-09T08:02:55;100215.16;;;20.57;100.00
15634;BME280;14654;48.898;8.308;2023-05-09T08:05:20;100212.13;;;20.65;100.00
15634;BME280;14654;48.898;8.308;2023-05-09T08:07:46;100200.16;;;20.77;100.00
15634;BME280;14654;48.898;8.308;2023-05-09T08:10:11;100206.09;;;20.96;100.00
15634;BME280;14654;48.898;8.308;2023-05-09T08:12:37;100191.53;;;21.23;100.00
15634;BME280;14654;48.898;8.308;2023-05-09T08:15:03;100189.00;;;21.53;100.00
15634;BME280;14654;48.898;8.308;2023-05-09T08:17:28;100182.69;;;21.72;100.00
15634;BME280;14654;48.898;8.308;2023-05-09T08:19:54;100187.16;;;21.86;100.00
15634;BME280;14654;48.898;8.308;2023-05-09T08:22:19;100173.81;;;21.89;100.00
15634;BME280;14654;48.898;8.308;2023-05-09T08:24:45;100181.78;;;21.87;100.00
15634;BME280;14654;48.898;8.308;2023-05-09T08:27:11;100170.53;;;21.85;100.00
15634;BME280;14654;48.898;8.308;2023-05-09T08:29:38;100174.09;;;21.84;100.00
15634;BME280;14654;48.898;8.308;2023-05-09T08:32:04;100174.88;;;22.01;100.00
15634;BME280;14654;48.898;8.308;2023-05-09T08:34:29;100170.53;;;22.30;100.00
15634;BME280;14654;48.898;8.308;2023-05-09T08:36:59;100161.91;;;22.57;100.00
15634;BME280;14654;48.898;8.308;2023-05-09T08:39:24;100157.94;;;22.79;99.49
15634;BME280;14654;48.898;8.308;2023-05-09T08:41:50;100160.75;;;22.90;98.93
15634;BME280;14654;48.898;8.308;2023-05-09T08:44:17;100160.63;;;22.92;98.67
15634;BME280;14654;48.898;8.308;2023-05-09T08:46:43;100163.13;;;22.80;98.94
15634;BME280;14654;48.898;8.308;2023-05-09T08:49:11;100163.69;;;22.71;99.42
15634;BME280;14654;48.898;8.308;2023-05-09T08:51:36;100163.41;;;22.61;99.78
15634;BME280;14654;48.898;8.308;2023-05-09T08:54:02;100159.53;;;22.52;100.00
15634;BME280;14654;48.898;8.308;2023-05-09T08:56:29;100165.09;;;22.48;100.00
15634;BME280;14654;48.898;8.308;2023-05-09T08:58:55;100149.66;;;22.42;100.00
15634;BME280;14654;48.898;8.308;2023-05-09T09:01:21;100140.88;;;22.41;100.00
15634;BME280;14654;48.898;8.308;2023-05-09T09:03:47;100142.03;;;22.51;100.00
15634;BME280;14654;48.898;8.308;2023-05-09T09:06:14;100138.06;;;22.73;99.49
15634;BME280;14654;48.898;8.308;2023-05-09T09:08:40;100134.75;;;22.98;98.67
15634;BME280;14654;48.898;8.308;2023-05-09T09:11:09;100131.66;;;23.19;97.69
15634;BME280;14654;48.898;8.308;2023-05-09T09:13:36;100127.34;;;23.46;96.56
15634;BME280;14654;48.898;8.308;2023-05-09T09:16:05;100131.00;;;23.70;95.33
15634;BME280;14654;48.898;8.308;2023-05-09T09:18:32;100117.56;;;24.01;94.53
15634;BME280;14654;48.898;8.308;2023-05-09T09:21:06;100111.94;;;24.31;92.67
15634;BME280;14654;48.898;8.308;2023-05-09T09:23:33;100113.63;;;24.45;91.35
15634;BME280;14654;48.898;8.308;2023-05-09T09:26:02;100102.94;;;24.73;90.63
15634;BME280;14654;48.898;8.308;2023-05-09T09:28:29;100101.16;;;24.98;89.47
15634;BME280;14654;48.898;8.308;2023-05-09T09:30:55;100098.88;;;25.17;88.26
15634;BME280;14654;48.898;8.308;2023-05-09T09:33:21;100094.44;;;25.29;88.30
15634;BME280;14654;48.898;8.308;2023-05-09T09:35:48;100093.00;;;25.25;88.53
15634;BME280;14654;48.898;8.308;2023-05-09T09:38:16;100089.22;;;25.16;88.54
15634;BME280;14654;48.898;8.308;2023-05-09T09:43:15;100087.59;;;25.02;89.05
15634;BME280;14654;48.898;8.308;2023-05-09T09:45:40;100085.72;;;24.91;89.00
15634;BME280;14654;48.898;8.308;2023-05-09T09:48:06;100082.59;;;24.73;89.23
15634;BME280;14654;48.898;8.308;2023-05-09T09:50:31;100075.94;;;24.55;89.07
15634;BME280;14654;48.898;8.308;2023-05-09T09:52:57;100075.44;;;24.37;89.30
15634;BME280;14654;48.898;8.308;2023-05-09T09:55:24;100076.44;;;24.10;89.58
15634;BME280;14654;48.898;8.308;2023-05-09T09:57:50;100079.44;;;23.90;89.88
15634;BME280;14654;48.898;8.308;2023-05-09T10:00:24;100071.63;;;23.76;90.45
15634;BME280;14654;48.898;8.308;2023-05-09T10:02:54;100068.53;;;23.69;90.53
15634;BME280;14654;48.898;8.308;2023-05-09T10:07:49;100065.25;;;23.53;90.62
15634;BME280;14654;48.898;8.308;2023-05-09T10:10:14;100054.03;;;23.36;90.45
15634;BME280;14654;48.898;8.308;2023-05-09T10:12:42;100040.31;;;23.17;90.48
15634;BME280;14654;48.898;8.308;2023-05-09T10:15:09;100040.88;;;22.94;90.72
15634;BME280;14654;48.898;8.308;2023-05-09T10:17:35;100029.81;;;22.75;90.88
15634;BME280;14654;48.898;8.308;2023-05-09T10:20:02;100031.34;;;22.64;90.72
15634;BME280;14654;48.898;8.308;2023-05-09T10:22:29;100027.28;;;22.73;91.69
15634;BME280;14654;48.898;8.308;2023-05-09T10:25:02;100021.78;;;22.91;91.96
15634;BME280;14654;48.898;8.308;2023-05-09T10:27:29;100019.34;;;23.01;91.91
15634;BME280;14654;48.898;8.308;2023-05-09T10:30:06;100018.47;;;23.14;91.38
15634;BME280;14654;48.898;8.308;2023-05-09T10:35:09;100012.34;;;23.54;90.93
15634;BME280;14654;48.898;8.308;2023-05-09T10:37:36;100007.59;;;23.85;90.62
15634;BME280;14654;48.898;8.308;2023-05-09T10:40:02;100005.06;;;24.10;90.25
15634;BME280;14654;48.898;8.308;2023-05-09T10:42:29;100006.63;;;24.25;89.25
15634;BME280;14654;48.898;8.308;2023-05-09T10:44:55;100001.53;;;24.35;89.26
15634;BME280;14654;48.898;8.308;2023-05-09T10:47:22;100001.69;;;24.45;88.54
15634;BME280;14654;48.898;8.308;2023-05-09T10:49:50;99993.19;;;24.53;88.04
15634;BME280;14654;48.898;8.308;2023-05-09T10:52:16;99986.94;;;24.54;88.10
15634;BME280;14654;48.898;8.308;2023-05-09T10:54:43;99993.28;;;24.27;86.47
15634;BME280;14654;48.898;8.308;2023-05-09T10:57:08;99985.91;;;24.06;87.46
15634;BME280;14654;48.898;8.308;2023-05-09T10:59:39;99992.56;;;23.86;87.62
15634;BME280;14654;48.898;8.308;2023-05-09T11:02:11;99986.56;;;23.71;88.63
15634;BME280;14654;48.898;8.308;2023-05-09T11:04:38;99974.19;;;23.71;89.22
15634;BME280;14654;48.898;8.308;2023-05-09T11:07:06;99965.34;;;23.59;88.53
15634;BME280;14654;48.898;8.308;2023-05-09T11:09:50;99960.56;;;23.65;88.20
15634;BME280;14654;48.898;8.308;2023-05-09T11:12:18;99954.41;;;23.77;88.16
15634;BME280;14654;48.898;8.308;2023-05-09T11:24:39;99944.38;;;23.82;84.11
15634;BME280;14654;48.898;8.308;2023-05-09T11:27:44;99938.88;;;23.72;82.85
15634;BME280;14654;48.898;8.308;2023-05-09T11:30:17;99935.28;;;23.73;83.44
15634;BME280;14654;48.898;8.308;2023-05-09T11:38:05;99923.38;;;23.68;86.13
15634;BME280;14654;48.898;8.308;2023-05-09T11:40:33;99922.72;;;23.77;86.71
15634;BME280;14654;48.898;8.308;2023-05-09T11:42:59;99917.00;;;23.83;86.16
15634;BME280;14654;48.898;8.308;2023-05-09T11:45:27;99910.00;;;23.95;86.38
15634;BME280;14654;48.898;8.308;2023-05-09T11:47:53;99910.63;;;24.12;86.36
15634;BME280;14654;48.898;8.308;2023-05-09T11:50:19;99909.53;;;24.27;86.18
15634;BME280;14654;48.898;8.308;2023-05-09T11:52:46;99909.69;;;24.37;85.76
15634;BME280;14654;48.898;8.308;2023-05-09T11:55:13;99909.41;;;24.29;85.17
15634;BME280;14654;48.898;8.308;2023-05-09T11:57:40;99890.13;;;24.02;85.48
15634;BME280;14654;48.898;8.308;2023-05-09T12:00:07;99892.81;;;23.64;86.18
15634;BME280;14654;48.898;8.308;2023-05-09T12:02:35;99874.69;;;23.33;87.43
15634;BME280;14654;48.898;8.308;2023-05-09T12:05:13;99884.38;;;23.07;88.63
15634;BME280;14654;48.898;8.308;2023-05-09T12:07:40;99875.34;;;22.83;89.86
15634;BME280;14654;48.898;8.308;2023-05-09T12:10:06;99870.13;;;22.56;90.80
15634;BME280;14654;48.898;8.308;2023-05-09T12:12:33;99868.88;;;22.34;91.61
15634;BME280;14654;48.898;8.308;2023-05-09T12:15:06;99867.88;;;22.22;92.33
15634;BME280;14654;48.898;8.308;2023-05-09T12:17:33;99862.25;;;22.14;93.42
15634;BME280;14654;48.898;8.308;2023-05-09T12:19:59;99860.59;;;21.99;94.29
15634;BME280;14654;48.898;8.308;2023-05-09T12:22:25;99860.63;;;21.84;95.39
15634;BME280;14654;48.898;8.308;2023-05-09T12:24:51;99852.19;;;21.65;97.20
15634;BME280;14654;48.898;8.308;2023-05-09T12:27:18;99851.69;;;21.43;99.20
15634;BME280;14654;48.898;8.308;2023-05-09T12:29:44;99843.88;;;21.27;100.00
15634;BME280;14654;48.898;8.308;2023-05-09T12:32:13;99843.34;;;21.22;100.00
15634;BME280;14654;48.898;8.308;2023-05-09T12:34:39;99834.03;;;21.16;100.00
15634;BME280;14654;48.898;8.308;2023-05-09T12:37:13;99827.34;;;21.11;100.00
15634;BME280;14654;48.898;8.308;2023-05-09T12:39:40;99824.69;;;21.11;100.00
15634;BME280;14654;48.898;8.308;2023-05-09T12:42:14;99821.72;;;21.17;100.00
15634;BME280;14654;48.898;8.308;2023-05-09T12:44:48;99819.38;;;21.27;100.00
15634;BME280;14654;48.898;8.308;2023-05-09T12:47:13;99813.22;;;21.41;100.00
15634;BME280;14654;48.898;8.308;2023-05-09T12:49:38;99819.00;;;21.62;100.00
15634;BME280;14654;48.898;8.308;2023-05-09T12:52:04;99814.63;;;21.90;100.00
15634;BME280;14654;48.898;8.308;2023-05-09T12:54:29;99817.03;;;22.20;100.00
15634;BME280;14654;48.898;8.308;2023-05-09T12:56:56;99810.22;;;22.45;99.09
15634;BME280;14654;48.898;8.308;2023-05-09T12:59:24;99804.88;;;22.86;98.37
15634;BME280;14654;48.898;8.308;2023-05-09T13:01:59;99805.41;;;23.29;97.70
15634;BME280;14654;48.898;8.308;2023-05-09T13:04:25;99807.25;;;23.66;96.38
15634;BME280;14654;48.898;8.308;2023-05-09T13:06:56;99801.56;;;23.97;95.23
15634;BME280;14654;48.898;8.308;2023-05-09T13:09:24;99798.31;;;24.17;93.35
15634;BME280;14654;48.898;8.308;2023-05-09T13:11:51;99797.19;;;24.33;92.95
15634;BME280;14654;48.898;8.308;2023-05-09T13:14:17;99789.78;;;24.49;91.75
15634;BME280;14654;48.898;8.308;2023-05-09T13:16:43;99784.28;;;24.64;90.67
15634;BME280;14654;48.898;8.308;2023-05-09T13:19:09;99768.81;;;24.71;89.83